sensor_id;sensor_type;location;lat;lon;timestamp;P1;durP1;ratioP1;P2;durP2;ratioP2
51927;SDS011;37953;52.806;18.270;2022-09-09T01:58:11;11.23;;;5.20;;
51927;SDS011;37953;52.806;18.270;2022-09-09T02:03:34;11.95;;;4.95;;
51927;SDS011;37953;52.806;18.270;2022-09-09T02:08:56;11.45;;;5.10;;
51927;SDS011;37953;52.806;18.270;2022-09-09T02:11:25;8.43;;;5.00;;
51927;SDS011;37953;52.806;18.270;2022-09-09T02:13:54;7.75;;;5.25;;
51927;SDS011;37953;52.806;18.270;2022-09-09T02:16:27;9.05;;;5.18;;
51927;SDS011;37953;52.806;18.270;2022-09-09T02:19:02;8.32;;;5.07;;
51927;SDS011;37953;52.806;18.270;2022-09-09T02:21:32;7.80;;;4.53;;
51927;SDS011;37953;52.806;18.270;2022-09-09T02:24:04;7.68;;;5.22;;
51927;SDS011;37953;52.806;18.270;2022-09-09T02:26:34;9.60;;;4.88;;
51927;SDS011;37953;52.806;18.270;2022-09-09T02:29:08;8.80;;;4.95;;
51927;SDS011;37953;52.806;18.270;2022-09-09T02:31:55;10.55;;;5.35;;
51927;SDS011;37953;52.806;18.270;2022-09-09T02:34:31;10.20;;;5.53;;
51927;SDS011;37953;52.806;18.270;2022-09-09T02:37:01;11.00;;;5.43;;
51927;SDS011;37953;52.806;18.270;2022-09-09T02:39:29;7.03;;;4.53;;
51927;SDS011;37953;52.806;18.270;2022-09-09T02:41:55;10.90;;;5.15;;
51927;SDS011;37953;52.806;18.270;2022-09-09T02:44:21;9.90;;;4.88;;
51927;SDS011;37953;52.806;18.270;2022-09-09T02:56:00;10.27;;;6.00;;
51927;SDS011;37953;52.806;18.270;2022-09-09T02:58:29;14.70;;;5.90;;
51927;SDS011;37953;52.806;18.270;2022-09-09T03:00:55;12.40;;;5.93;;
51927;SDS011;37953;52.806;18.270;2022-09-09T03:03:23;11.57;;;5.30;;
51927;SDS011;37953;52.806;18.270;2022-09-09T03:05:49;8.93;;;5.13;;
51927;SDS011;37953;52.806;18.270;2022-09-09T03:08:15;9.10;;;5.00;;
51927;SDS011;37953;52.806;18.270;2022-09-09T03:10:42;10.85;;;5.50;;
51927;SDS011;37953;52.806;18.270;2022-09-09T03:13:08;11.40;;;5.18;;
51927;SDS011;37953;52.806;18.270;2022-09-09T03:15:35;8.93;;;5.22;;
51927;SDS011;37953;52.806;18.270;2022-09-09T03:18:02;8.35;;;4.97;;
51927;SDS011;37953;52.806;18.270;2022-09-09T03:20:29;9.60;;;5.43;;
51927;SDS011;37953;52.806;18.270;2022-09-09T03:22:56;7.65;;;4.82;;
51927;SDS011;37953;52.806;18.270;2022-09-09T03:25:24;11.63;;;5.47;;
51927;SDS011;37953;52.806;18.270;2022-09-09T03:27:52;9.68;;;4.82;;
51927;SDS011;37953;52.806;18.270;2022-09-09T03:30:21;8.70;;;5.35;;
51927;SDS011;37953;52.806;18.270;2022-09-09T03:32:53;9.90;;;5.50;;
51927;SDS011;37953;52.806;18.270;2022-09-09T03:35:20;8.02;;;4.80;;
51927;SDS011;37953;52.806;18.270;2022-09-09T03:37:47;8.80;;;5.28;;
51927;SDS011;37953;52.806;18.270;2022-09-09T03:40:13;9.43;;;5.35;;
51927;SDS011;37953;52.806;18.270;2022-09-09T03:42:39;7.22;;;4.95;;
51927;SDS011;37953;52.806;18.270;2022-09-09T03:45:09;7.40;;;4.93;;
51927;SDS011;37953;52.806;18.270;2022-09-09T03:47:36;7.85;;;5.10;;
51927;SDS011;37953;52.806;18.270;2022-09-09T03:50:02;13.23;;;4.72;;
51927;SDS011;37953;52.806;18.270;2022-09-09T03:52:33;7.28;;;4.88;;
51927;SDS011;37953;52.806;18.270;2022-09-09T03:55:00;8.95;;;5.35;;
51927;SDS011;37953;52.806;18.270;2022-09-09T03:57:27;9.30;;;5.28;;
51927;SDS011;37953;52.806;18.270;2022-09-09T03:59:52;8.00;;;4.95;;
51927;SDS011;37953;52.806;18.270;2022-09-09T04:02:19;10.15;;;5.25;;
51927;SDS011;37953;52.806;18.270;2022-09-09T04:04:51;9.25;;;6.18;;
51927;SDS011;37953;52.806;18.270;2022-09-09T04:07:17;8.35;;;5.43;;
51927;SDS011;37953;52.806;18.270;2022-09-09T04:09:43;10.10;;;6.00;;
51927;SDS011;37953;52.806;18.270;2022-09-09T04:12:09;10.10;;;5.57;;
51927;SDS011;37953;52.806;18.270;2022-09-09T04:14:39;10.55;;;5.40;;
51927;SDS011;37953;52.806;18.270;2022-09-09T04:17:05;10.65;;;5.75;;
51927;SDS011;37953;52.806;18.270;2022-09-09T04:19:32;9.07;;;6.05;;
51927;SDS011;37953;52.806;18.270;2022-09-09T04:21:58;8.40;;;5.80;;
51927;SDS011;37953;52.806;18.270;2022-09-09T04:24:24;10.18;;;6.13;;
51927;SDS011;37953;52.806;18.270;2022-09-09T04:26:53;10.52;;;5.93;;
51927;SDS011;37953;52.806;18.270;2022-09-09T04:29:18;11.60;;;6.47;;
51927;SDS011;37953;52.806;18.270;2022-09-09T04:31:44;12.55;;;6.78;;
51927;SDS011;37953;52.806;18.270;2022-09-09T04:34:10;11.10;;;6.20;;
51927;SDS011;37953;52.806;18.270;2022-09-09T04:36:36;9.50;;;6.63;;
51927;SDS011;37953;52.806;18.270;2022-09-09T04:39:05;14.32;;;6.82;;
51927;SDS011;37953;52.806;18.270;2022-09-09T04:41:32;17.48;;;6.82;;
51927;SDS011;37953;52.806;18.270;2022-09-09T04:43:58;13.05;;;7.00;;
51927;SDS011;37953;52.806;18.270;2022-09-09T04:46:26;10.40;;;6.90;;
51927;SDS011;37953;52.806;18.270;2022-09-09T04:48:52;19.17;;;7.20;;
51927;SDS011;37953;52.806;18.270;2022-09-09T04:51:19;13.25;;;7.50;;
51927;SDS011;37953;52.806;18.270;2022-09-09T04:53:45;9.95;;;6.72;;
51927;SDS011;37953;52.806;18.270;2022-09-09T04:56:14;11.80;;;6.95;;
51927;SDS011;37953;52.806;18.270;2022-09-09T04:58:41;10.60;;;7.20;;
51927;SDS011;37953;52.806;18.270;2022-09-09T05:01:09;12.52;;;7.22;;
51927;SDS011;37953;52.806;18.270;2022-09-09T05:06:25;13.23;;;7.60;;
51927;SDS011;37953;52.806;18.270;2022-09-09T05:08:51;11.95;;;7.50;;
51927;SDS011;37953;52.806;18.270;2022-09-09T05:13:54;16.33;;;7.82;;
51927;SDS011;37953;52.806;18.270;2022-09-09T05:16:20;17.95;;;8.82;;
51927;SDS011;37953;52.806;18.270;2022-09-09T05:18:52;17.75;;;8.60;;
51927;SDS011;37953;52.806;18.270;2022-09-09T05:21:20;17.17;;;8.50;;
51927;SDS011;37953;52.806;18.270;2022-09-09T05:23:47;15.68;;;8.48;;
51927;SDS011;37953;52.806;18.270;2022-09-09T05:26:14;16.75;;;8.35;;
51927;SDS011;37953;52.806;18.270;2022-09-09T05:28:42;17.65;;;9.40;;
51927;SDS011;37953;52.806;18.270;2022-09-09T05:31:08;15.65;;;8.98;;
51927;SDS011;37953;52.806;18.270;2022-09-09T05:36:07;15.85;;;7.90;;
51927;SDS011;37953;52.806;18.270;2022-09-09T05:38:41;13.93;;;7.53;;
51927;SDS011;37953;52.806;18.270;2022-09-09T05:41:07;16.00;;;7.80;;
51927;SDS011;37953;52.806;18.270;2022-09-09T05:43:35;13.05;;;7.93;;
51927;SDS011;37953;52.806;18.270;2022-09-09T05:46:03;17.15;;;8.77;;
51927;SDS011;37953;52.806;18.270;2022-09-09T05:48:40;15.55;;;8.75;;
51927;SDS011;37953;52.806;18.270;2022-09-09T05:51:09;17.48;;;8.38;;
51927;SDS011;37953;52.806;18.270;2022-09-09T05:53:38;14.47;;;8.40;;
51927;SDS011;37953;52.806;18.270;2022-09-09T05:56:05;17.33;;;9.60;;
51927;SDS011;37953;52.806;18.270;2022-09-09T05:58:39;15.95;;;9.38;;
51927;SDS011;37953;52.806;18.270;2022-09-09T06:01:09;17.13;;;9.77;;
51927;SDS011;37953;52.806;18.270;2022-09-09T06:03:45;21.27;;;10.75;;
51927;SDS011;37953;52.806;18.270;2022-09-09T06:06:13;19.60;;;11.20;;
51927;SDS011;37953;52.806;18.270;2022-09-09T06:08:41;20.20;;;10.20;;
51927;SDS011;37953;52.806;18.270;2022-09-09T06:13:44;17.02;;;10.15;;
51927;SDS011;37953;52.806;18.270;2022-09-09T06:16:17;21.55;;;10.80;;
51927;SDS011;37953;52.806;18.270;2022-09-09T06:18:44;20.70;;;10.57;;
51927;SDS011;37953;52.806;18.270;2022-09-09T06:21:15;18.70;;;10.98;;
51927;SDS011;37953;52.806;18.270;2022-09-09T06:23:46;18.00;;;10.45;;
51927;SDS011;37953;52.806;18.270;2022-09-09T07:30:22;31.80;;;15.25;;
51927;SDS011;37953;52.806;18.270;2022-09-09T07:32:48;35.05;;;16.02;;
51927;SDS011;37953;52.806;18.270;2022-09-09T07:35:16;31.48;;;16.08;;
51927;SDS011;37953;52.806;18.270;2022-09-09T07:37:43;38.53;;;17.42;;
51927;SDS011;37953;52.806;18.270;2022-09-09T07:40:10;37.83;;;16.45;;
51927;SDS011;37953;52.806;18.270;2022-09-09T07:42:36;38.38;;;17.27;;
51927;SDS011;37953;52.806;18.270;2022-09-09T07:45:03;37.42;;;16.83;;
51927;SDS011;37953;52.806;18.270;2022-09-09T07:47:30;38.55;;;16.95;;
51927;SDS011;37953;52.806;18.270;2022-09-09T07:49:56;35.65;;;16.67;;
51927;SDS011;37953;52.806;18.270;2022-09-09T07:52:22;44.13;;;17.55;;
51927;SDS011;37953;52.806;18.270;2022-09-09T07:54:49;36.55;;;16.20;;
51927;SDS011;37953;52.806;18.270;2022-09-09T07:57:15;39.05;;;16.92;;
51927;SDS011;37953;52.806;18.270;2022-09-09T07:59:42;37.60;;;17.38;;
51927;SDS011;37953;52.806;18.270;2022-09-09T08:02:08;39.90;;;17.58;;
51927;SDS011;37953;52.806;18.270;2022-09-09T08:04:35;47.55;;;19.30;;
51927;SDS011;37953;52.806;18.270;2022-09-09T08:07:01;48.25;;;19.88;;
51927;SDS011;37953;52.806;18.270;2022-09-09T08:09:29;46.00;;;18.55;;
51927;SDS011;37953;52.806;18.270;2022-09-09T08:11:57;44.65;;;18.95;;
51927;SDS011;37953;52.806;18.270;2022-09-09T08:14:24;47.80;;;18.58;;
51927;SDS011;37953;52.806;18.270;2022-09-09T08:16:50;39.05;;;18.13;;
51927;SDS011;37953;52.806;18.270;2022-09-09T08:19:19;42.45;;;17.60;;
51927;SDS011;37953;52.806;18.270;2022-09-09T08:21:45;42.83;;;18.60;;
51927;SDS011;37953;52.806;18.270;2022-09-09T08:24:12;44.95;;;19.52;;
51927;SDS011;37953;52.806;18.270;2022-09-09T08:26:41;45.88;;;19.42;;
51927;SDS011;37953;52.806;18.270;2022-09-09T08:29:13;46.67;;;20.00;;
51927;SDS011;37953;52.806;18.270;2022-09-09T08:31:40;49.15;;;20.35;;
51927;SDS011;37953;52.806;18.270;2022-09-09T08:34:13;47.53;;;19.55;;
51927;SDS011;37953;52.806;18.270;2022-09-09T08:36:40;52.20;;;20.60;;
51927;SDS011;37953;52.806;18.270;2022-09-09T08:39:09;39.30;;;19.65;;
51927;SDS011;37953;52.806;18.270;2022-09-09T08:50:07;54.13;;;20.98;;
51927;SDS011;37953;52.806;18.270;2022-09-09T08:53:10;49.08;;;20.70;;
51927;SDS011;37953;52.806;18.270;2022-09-09T08:55:39;51.63;;;22.17;;
51927;SDS011;37953;52.806;18.270;2022-09-09T08:58:17;51.45;;;22.45;;
51927;SDS011;37953;52.806;18.270;2022-09-09T09:01:00;52.38;;;22.92;;
51927;SDS011;37953;52.806;18.270;2022-09-09T09:10:09;53.63;;;23.20;;
51927;SDS011;37953;52.806;18.270;2022-09-09T09:12:58;50.13;;;21.33;;
51927;SDS011;37953;52.806;18.270;2022-09-09T09:15:31;52.33;;;24.10;;
51927;SDS011;37953;52.806;18.270;2022-09-09T09:18:02;53.75;;;22.42;;
51927;SDS011;37953;52.806;18.270;2022-09-09T09:20:36;53.45;;;22.95;;
51927;SDS011;37953;52.806;18.270;2022-09-09T09:23:15;49.90;;;23.48;;
51927;SDS011;37953;52.806;18.270;2022-09-09T09:26:20;55.35;;;24.25;;
51927;SDS011;37953;52.806;18.270;2022-09-09T09:28:49;57.42;;;26.48;;
51927;SDS011;37953;52.806;18.270;2022-09-09T09:31:22;59.20;;;27.10;;
51927;SDS011;37953;52.806;18.270;2022-09-09T09:33:53;56.17;;;27.30;;
51927;SDS011;37953;52.806;18.270;2022-09-09T09:36:21;56.33;;;25.73;;
51927;SDS011;37953;52.806;18.270;2022-09-09T09:39:33;62.05;;;27.65;;
51927;SDS011;37953;52.806;18.270;2022-09-09T09:42:11;68.47;;;29.30;;
51927;SDS011;37953;52.806;18.270;2022-09-09T09:44:40;64.80;;;28.85;;
51927;SDS011;37953;52.806;18.270;2022-09-09T09:47:20;65.20;;;29.80;;
51927;SDS011;37953;52.806;18.270;2022-09-09T09:49:55;60.90;;;28.40;;
51927;SDS011;37953;52.806;18.270;2022-09-09T09:52:24;64.78;;;28.92;;
51927;SDS011;37953;52.806;18.270;2022-09-09T09:54:54;63.60;;;29.13;;
51927;SDS011;37953;52.806;18.270;2022-09-09T09:57:26;54.67;;;27.63;;
51927;SDS011;37953;52.806;18.270;2022-09-09T10:00:03;58.97;;;27.48;;
51927;SDS011;37953;52.806;18.270;2022-09-09T10:02:48;59.85;;;27.33;;
51927;SDS011;37953;52.806;18.270;2022-09-09T10:05:30;58.15;;;26.70;;
51927;SDS011;37953;52.806;18.270;2022-09-09T10:08:12;50.22;;;25.73;;
51927;SDS011;37953;52.806;18.270;2022-09-09T10:10:50;55.45;;;26.58;;
51927;SDS011;37953;52.806;18.270;2022-09-09T10:22:11;53.30;;;25.55;;
51927;SDS011;37953;52.806;18.270;2022-09-09T10:25:37;54.83;;;25.88;;
51927;SDS011;37953;52.806;18.270;2022-09-09T10:31:18;51.63;;;24.52;;
51927;SDS011;37953;52.806;18.270;2022-09-09T10:37:07;48.05;;;23.65;;
51927;SDS011;37953;52.806;18.270;2022-09-09T10:40:02;47.65;;;24.13;;
51927;SDS011;37953;52.806;18.270;2022-09-09T10:42:53;43.25;;;23.13;;
51927;SDS011;37953;52.806;18.270;2022-09-09T10:45:29;41.38;;;21.75;;
51927;SDS011;37953;52.806;18.270;2022-09-09T10:53:24;41.40;;;22.90;;
51927;SDS011;37953;52.806;18.270;2022-09-09T10:56:25;38.42;;;21.83;;
51927;SDS011;37953;52.806;18.270;2022-09-09T10:59:04;46.45;;;22.98;;
51927;SDS011;37953;52.806;18.270;2022-09-09T11:04:35;38.03;;;20.33;;
51927;SDS011;37953;52.806;18.270;2022-09-09T11:07:10;42.17;;;21.85;;
51927;SDS011;37953;52.806;18.270;2022-09-09T11:10:00;41.08;;;21.50;;
51927;SDS011;37953;52.806;18.270;2022-09-09T11:12:32;37.30;;;19.30;;
51927;SDS011;37953;52.806;18.270;2022-09-09T11:15:06;35.67;;;18.77;;
51927;SDS011;37953;52.806;18.270;2022-09-09T11:17:49;38.20;;;19.90;;
51927;SDS011;37953;52.806;18.270;2022-09-09T11:20:22;37.58;;;20.15;;
51927;SDS011;37953;52.806;18.270;2022-09-09T11:31:46;33.60;;;18.65;;
51927;SDS011;37953;52.806;18.270;2022-09-09T11:40:03;34.60;;;18.75;;
51927;SDS011;37953;52.806;18.270;2022-09-09T11:42:35;30.60;;;17.60;;
51927;SDS011;37953;52.806;18.270;2022-09-09T11:53:28;32.08;;;18.27;;
51927;SDS011;37953;52.806;18.270;2022-09-09T11:56:01;33.70;;;17.90;;
51927;SDS011;37953;52.806;18.270;2022-09-09T11:58:32;31.10;;;17.98;;
51927;SDS011;37953;52.806;18.270;2022-09-09T12:01:15;33.95;;;18.88;;
51927;SDS011;37953;52.806;18.270;2022-09-09T12:04:09;31.55;;;18.70;;
51927;SDS011;37953;52.806;18.270;2022-09-09T12:06:48;35.17;;;20.10;;
51927;SDS011;37953;52.806;18.270;2022-09-09T12:12:04;36.13;;;20.15;;
51927;SDS011;37953;52.806;18.270;2022-09-09T12:14:43;34.97;;;19.73;;
51927;SDS011;37953;52.806;18.270;2022-09-09T12:17:58;37.45;;;20.08;;
51927;SDS011;37953;52.806;18.270;2022-09-09T12:20:31;32.28;;;19.10;;
51927;SDS011;37953;52.806;18.270;2022-09-09T12:23:47;39.97;;;21.75;;
51927;SDS011;37953;52.806;18.270;2022-09-09T12:26:47;39.58;;;22.67;;
51927;SDS011;37953;52.806;18.270;2022-09-09T12:32:58;39.80;;;21.92;;
51927;SDS011;37953;52.806;18.270;2022-09-09T12:35:34;45.08;;;22.98;;
51927;SDS011;37953;52.806;18.270;2022-09-09T12:38:14;42.65;;;22.92;;
51927;SDS011;37953;52.806;18.270;2022-09-09T12:40:53;43.65;;;22.77;;
51927;SDS011;37953;52.806;18.270;2022-09-09T12:43:24;39.50;;;20.90;;
51927;SDS011;37953;52.806;18.270;2022-09-09T12:45:58;38.67;;;21.17;;
51927;SDS011;37953;52.806;18.270;2022-09-09T12:48:32;38.85;;;21.70;;
51927;SDS011;37953;52.806;18.270;2022-09-09T12:51:02;40.90;;;20.80;;
51927;SDS011;37953;52.806;18.270;2022-09-09T12:53:32;46.88;;;22.58;;
51927;SDS011;37953;52.806;18.270;2022-09-09T12:56:04;39.65;;;20.95;;
51927;SDS011;37953;52.806;18.270;2022-09-09T12:58:36;46.90;;;23.10;;
51927;SDS011;37953;52.806;18.270;2022-09-09T13:01:04;47.53;;;23.73;;
51927;SDS011;37953;52.806;18.270;2022-09-09T13:03:31;41.75;;;21.63;;
51927;SDS011;37953;52.806;18.270;2022-09-09T13:06:21;37.13;;;20.80;;
51927;SDS011;37953;52.806;18.270;2022-09-09T13:08:53;33.13;;;17.80;;
51927;SDS011;37953;52.806;18.270;2022-09-09T13:11:25;32.88;;;18.00;;
51927;SDS011;37953;52.806;18.270;2022-09-09T13:13:59;37.28;;;18.80;;
51927;SDS011;37953;52.806;18.270;2022-09-09T13:16:29;33.30;;;18.13;;
51927;SDS011;37953;52.806;18.270;2022-09-09T13:18:58;33.05;;;17.65;;
51927;SDS011;37953;52.806;18.270;2022-09-09T13:21:33;34.83;;;18.60;;
51927;SDS011;37953;52.806;18.270;2022-09-09T13:24:01;32.15;;;17.10;;
51927;SDS011;37953;52.806;18.270;2022-09-09T13:26:29;34.97;;;17.42;;
51927;SDS011;37953;52.806;18.270;2022-09-09T13:29:07;30.25;;;16.25;;
51927;SDS011;37953;52.806;18.270;2022-09-09T13:31:43;33.30;;;16.73;;
51927;SDS011;37953;52.806;18.270;2022-09-09T13:34:31;31.17;;;15.77;;
51927;SDS011;37953;52.806;18.270;2022-09-09T13:37:03;27.00;;;14.90;;
51927;SDS011;37953;52.806;18.270;2022-09-09T13:39:55;30.35;;;15.32;;
51927;SDS011;37953;52.806;18.270;2022-09-09T13:42:28;29.02;;;13.98;;
51927;SDS011;37953;52.806;18.270;2022-09-09T13:44:56;26.38;;;13.68;;
51927;SDS011;37953;52.806;18.270;2022-09-09T13:47:32;26.35;;;12.80;;
51927;SDS011;37953;52.806;18.270;2022-09-09T13:52:55;25.17;;;12.93;;
51927;SDS011;37953;52.806;18.270;2022-09-09T13:55:27;23.92;;;13.40;;
51927;SDS011;37953;52.806;18.270;2022-09-09T13:57:54;22.17;;;12.13;;
51927;SDS011;37953;52.806;18.270;2022-09-09T14:00:22;24.13;;;12.50;;
51927;SDS011;37953;52.806;18.270;2022-09-09T14:02:52;12.80;;;7.83;;
51927;SDS011;37953;52.806;18.270;2022-09-09T14:05:20;20.02;;;11.10;;
51927;SDS011;37953;52.806;18.270;2022-09-09T14:07:47;20.25;;;10.85;;
51927;SDS011;37953;52.806;18.270;2022-09-09T14:10:15;21.40;;;11.63;;
51927;SDS011;37953;52.806;18.270;2022-09-09T14:12:41;19.48;;;10.63;;
51927;SDS011;37953;52.806;18.270;2022-09-09T14:15:07;18.25;;;10.38;;
51927;SDS011;37953;52.806;18.270;2022-09-09T14:17:35;19.52;;;10.25;;
51927;SDS011;37953;52.806;18.270;2022-09-09T14:20:03;20.90;;;11.63;;
51927;SDS011;37953;52.806;18.270;2022-09-09T14:22:33;19.80;;;11.18;;
51927;SDS011;37953;52.806;18.270;2022-09-09T14:24:59;18.80;;;10.90;;
51927;SDS011;37953;52.806;18.270;2022-09-09T14:27:25;19.13;;;10.82;;
51927;SDS011;37953;52.806;18.270;2022-09-09T14:29:52;18.85;;;9.55;;
51927;SDS011;37953;52.806;18.270;2022-09-09T14:32:18;17.27;;;9.85;;
51927;SDS011;37953;52.806;18.270;2022-09-09T14:34:44;19.70;;;11.23;;
51927;SDS011;37953;52.806;18.270;2022-09-09T14:37:10;18.85;;;10.40;;
51927;SDS011;37953;52.806;18.270;2022-09-09T14:39:36;20.02;;;11.40;;
51927;SDS011;37953;52.806;18.270;2022-09-09T14:42:02;18.30;;;10.52;;
51927;SDS011;37953;52.806;18.270;2022-09-09T14:44:29;15.82;;;10.27;;
51927;SDS011;37953;52.806;18.270;2022-09-09T14:46:56;23.00;;;10.88;;
51927;SDS011;37953;52.806;18.270;2022-09-09T14:49:21;15.85;;;9.90;;
51927;SDS011;37953;52.806;18.270;2022-09-09T14:51:47;17.27;;;10.98;;
51927;SDS011;37953;52.806;18.270;2022-09-09T14:54:13;16.33;;;9.98;;
51927;SDS011;37953;52.806;18.270;2022-09-09T14:56:42;20.65;;;10.90;;
51927;SDS011;37953;52.806;18.270;2022-09-09T14:59:08;17.40;;;11.15;;
51927;SDS011;37953;52.806;18.270;2022-09-09T15:01:37;19.13;;;11.13;;
51927;SDS011;37953;52.806;18.270;2022-09-09T15:04:04;21.55;;;11.98;;
51927;SDS011;37953;52.806;18.270;2022-09-09T15:06:32;21.02;;;11.57;;
51927;SDS011;37953;52.806;18.270;2022-09-09T15:09:00;21.08;;;11.77;;
51927;SDS011;37953;52.806;18.270;2022-09-09T15:11:27;17.83;;;10.73;;
51927;SDS011;37953;52.806;18.270;2022-09-09T15:13:56;18.77;;;10.98;;
51927;SDS011;37953;52.806;18.270;2022-09-09T15:16:32;18.27;;;9.85;;
51927;SDS011;37953;52.806;18.270;2022-09-09T15:18:58;19.90;;;10.90;;
51927;SDS011;37953;52.806;18.270;2022-09-09T15:21:28;20.25;;;12.32;;
51927;SDS011;37953;52.806;18.270;2022-09-09T15:24:01;22.30;;;12.93;;
51927;SDS011;37953;52.806;18.270;2022-09-09T15:26:32;18.05;;;12.20;;
51927;SDS011;37953;52.806;18.270;2022-09-09T15:29:01;25.30;;;13.70;;
51927;SDS011;37953;52.806;18.270;2022-09-09T15:31:28;18.80;;;12.38;;
51927;SDS011;37953;52.806;18.270;2022-09-09T15:33:59;20.45;;;12.45;;
51927;SDS011;37953;52.806;18.270;2022-09-09T15:36:28;21.15;;;12.07;;
51927;SDS011;37953;52.806;18.270;2022-09-09T15:38:55;23.25;;;14.45;;
51927;SDS011;37953;52.806;18.270;2022-09-09T15:41:21;25.08;;;14.90;;
51927;SDS011;37953;52.806;18.270;2022-09-09T15:43:49;26.27;;;15.27;;
51927;SDS011;37953;52.806;18.270;2022-09-09T15:46:30;22.33;;;14.30;;
51927;SDS011;37953;52.806;18.270;2022-09-09T15:49:04;23.48;;;13.80;;
51927;SDS011;37953;52.806;18.270;2022-09-09T15:51:30;23.77;;;14.40;;
51927;SDS011;37953;52.806;18.270;2022-09-09T15:53:57;20.27;;;13.40;;
51927;SDS011;37953;52.806;18.270;2022-09-09T15:56:28;27.15;;;15.25;;
51927;SDS011;37953;52.806;18.270;2022-09-09T16:01:31;25.60;;;15.82;;
51927;SDS011;37953;52.806;18.270;2022-09-09T16:03:58;26.52;;;18.65;;
51927;SDS011;37953;52.806;18.270;2022-09-09T16:06:26;27.35;;;16.17;;
51927;SDS011;37953;52.806;18.270;2022-09-09T16:08:54;26.52;;;15.05;;
51927;SDS011;37953;52.806;18.270;2022-09-09T16:11:23;24.20;;;16.60;;
51927;SDS011;37953;52.806;18.270;2022-09-09T16:13:50;24.80;;;14.85;;
51927;SDS011;37953;52.806;18.270;2022-09-09T16:16:25;26.83;;;16.15;;
51927;SDS011;37953;52.806;18.270;2022-09-09T16:18:54;26.88;;;16.67;;
51927;SDS011;37953;52.806;18.270;2022-09-09T16:21:28;25.05;;;15.25;;
51927;SDS011;37953;52.806;18.270;2022-09-09T16:24:00;28.77;;;16.73;;
51927;SDS011;37953;52.806;18.270;2022-09-09T16:26:31;25.50;;;16.25;;
51927;SDS011;37953;52.806;18.270;2022-09-09T16:28:58;24.83;;;15.93;;
51927;SDS011;37953;52.806;18.270;2022-09-09T16:31:31;24.55;;;15.32;;
51927;SDS011;37953;52.806;18.270;2022-09-09T16:34:00;25.10;;;16.17;;
51927;SDS011;37953;52.806;18.270;2022-09-09T16:36:27;25.27;;;15.45;;
51927;SDS011;37953;52.806;18.270;2022-09-09T16:38:58;29.08;;;17.48;;
51927;SDS011;37953;52.806;18.270;2022-09-09T16:41:25;26.48;;;16.38;;
51927;SDS011;37953;52.806;18.270;2022-09-09T16:43:54;24.40;;;14.75;;
51927;SDS011;37953;52.806;18.270;2022-09-09T16:46:21;26.45;;;14.23;;
51927;SDS011;37953;52.806;18.270;2022-09-09T16:48:49;22.23;;;14.10;;
51927;SDS011;37953;52.806;18.270;2022-09-09T16:51:21;21.85;;;13.73;;
51927;SDS011;37953;52.806;18.270;2022-09-09T16:53:54;19.88;;;12.85;;
51927;SDS011;37953;52.806;18.270;2022-09-09T16:56:28;21.35;;;13.77;;
51927;SDS011;37953;52.806;18.270;2022-09-09T16:58:57;22.27;;;14.10;;
51927;SDS011;37953;52.806;18.270;2022-09-09T17:01:31;22.45;;;14.32;;
51927;SDS011;37953;52.806;18.270;2022-09-09T17:03:59;21.67;;;12.77;;
51927;SDS011;37953;52.806;18.270;2022-09-09T17:06:27;21.73;;;14.18;;
51927;SDS011;37953;52.806;18.270;2022-09-09T17:09:01;22.00;;;14.43;;
51927;SDS011;37953;52.806;18.270;2022-09-09T17:11:37;20.90;;;14.38;;
51927;SDS011;37953;52.806;18.270;2022-09-09T17:14:05;21.15;;;13.38;;
51927;SDS011;37953;52.806;18.270;2022-09-09T17:16:33;26.42;;;14.55;;
51927;SDS011;37953;52.806;18.270;2022-09-09T17:19:00;23.33;;;13.73;;
51927;SDS011;37953;52.806;18.270;2022-09-09T17:21:27;20.65;;;14.20;;
51927;SDS011;37953;52.806;18.270;2022-09-09T17:23:54;25.15;;;14.90;;
51927;SDS011;37953;52.806;18.270;2022-09-09T17:26:22;22.48;;;14.90;;
51927;SDS011;37953;52.806;18.270;2022-09-09T17:28:55;24.30;;;15.15;;
51927;SDS011;37953;52.806;18.270;2022-09-09T17:31:25;25.83;;;15.20;;
51927;SDS011;37953;52.806;18.270;2022-09-09T17:33:52;37.72;;;14.32;;
51927;SDS011;37953;52.806;18.270;2022-09-09T17:36:20;23.02;;;14.77;;
51927;SDS011;37953;52.806;18.270;2022-09-09T17:38:49;22.25;;;14.43;;
51927;SDS011;37953;52.806;18.270;2022-09-09T17:41:17;22.08;;;13.15;;
51927;SDS011;37953;52.806;18.270;2022-09-09T17:43:45;22.10;;;13.75;;
51927;SDS011;37953;52.806;18.270;2022-09-09T17:46:16;22.08;;;13.90;;
51927;SDS011;37953;52.806;18.270;2022-09-09T17:49:04;26.27;;;15.80;;
51927;SDS011;37953;52.806;18.270;2022-09-09T17:51:32;21.80;;;15.32;;
51927;SDS011;37953;52.806;18.270;2022-09-09T17:54:08;24.70;;;14.43;;
51927;SDS011;37953;52.806;18.270;2022-09-09T17:56:37;25.50;;;15.95;;
51927;SDS011;37953;52.806;18.270;2022-09-09T17:59:04;22.40;;;14.93;;
51927;SDS011;37953;52.806;18.270;2022-09-09T18:01:41;20.98;;;14.02;;
51927;SDS011;37953;52.806;18.270;2022-09-09T18:06:41;25.15;;;15.73;;
51927;SDS011;37953;52.806;18.270;2022-09-09T18:09:11;23.65;;;15.30;;
51927;SDS011;37953;52.806;18.270;2022-09-09T18:11:45;25.33;;;15.00;;
51927;SDS011;37953;52.806;18.270;2022-09-09T18:14:15;21.73;;;14.85;;
51927;SDS011;37953;52.806;18.270;2022-09-09T18:16:44;23.90;;;15.38;;
51927;SDS011;37953;52.806;18.270;2022-09-09T18:19:12;24.70;;;15.48;;
51927;SDS011;37953;52.806;18.270;2022-09-09T18:21:46;22.05;;;15.55;;
51927;SDS011;37953;52.806;18.270;2022-09-09T18:24:12;22.30;;;15.95;;
51927;SDS011;37953;52.806;18.270;2022-09-09T18:26:40;22.38;;;16.05;;
51927;SDS011;37953;52.806;18.270;2022-09-09T18:29:09;23.58;;;16.33;;
51927;SDS011;37953;52.806;18.270;2022-09-09T18:31:37;25.83;;;17.38;;
51927;SDS011;37953;52.806;18.270;2022-09-09T18:34:09;28.10;;;17.58;;
51927;SDS011;37953;52.806;18.270;2022-09-09T18:36:40;26.90;;;18.33;;
51927;SDS011;37953;52.806;18.270;2022-09-09T18:39:11;26.08;;;18.17;;
51927;SDS011;37953;52.806;18.270;2022-09-09T18:41:42;29.83;;;19.30;;
51927;SDS011;37953;52.806;18.270;2022-09-09T18:44:12;27.33;;;18.30;;
51927;SDS011;37953;52.806;18.270;2022-09-09T18:46:43;27.75;;;19.45;;
51927;SDS011;37953;52.806;18.270;2022-09-09T18:49:10;28.25;;;19.63;;
51927;SDS011;37953;52.806;18.270;2022-09-09T18:51:38;28.80;;;19.73;;
51927;SDS011;37953;52.806;18.270;2022-09-09T18:54:09;28.25;;;19.48;;
51927;SDS011;37953;52.806;18.270;2022-09-09T18:56:38;28.80;;;20.02;;
51927;SDS011;37953;52.806;18.270;2022-09-09T18:59:09;28.08;;;19.42;;
51927;SDS011;37953;52.806;18.270;2022-09-09T19:01:41;27.67;;;19.75;;
51927;SDS011;37953;52.806;18.270;2022-09-09T19:04:12;31.05;;;21.27;;
51927;SDS011;37953;52.806;18.270;2022-09-09T19:06:44;29.92;;;21.10;;
51927;SDS011;37953;52.806;18.270;2022-09-09T19:09:13;29.70;;;20.52;;
51927;SDS011;37953;52.806;18.270;2022-09-09T19:11:46;28.83;;;20.90;;
51927;SDS011;37953;52.806;18.270;2022-09-09T19:14:14;28.98;;;20.20;;
51927;SDS011;37953;52.806;18.270;2022-09-09T19:16:42;30.00;;;21.02;;
51927;SDS011;37953;52.806;18.270;2022-09-09T19:19:12;30.33;;;21.17;;